sensor_id;sensor_type;location;lat;lon;timestamp;P1;durP1;ratioP1;P2;durP2;ratioP2
25127;SDS011;13107;51.304;6.866;2024-02-28T00:00:50;23.65;;;12.43;;
25127;SDS011;13107;51.304;6.866;2024-02-28T00:04:53;24.58;;;12.88;;
25127;SDS011;13107;51.304;6.866;2024-02-28T00:08:55;24.33;;;12.13;;
25127;SDS011;13107;51.304;6.866;2024-02-28T00:12:57;24.30;;;12.15;;
25127;SDS011;13107;51.304;6.866;2024-02-28T00:17:00;21.40;;;11.85;;
25127;SDS011;13107;51.304;6.866;2024-02-28T00:21:02;25.77;;;13.23;;
25127;SDS011;13107;51.304;6.866;2024-02-28T00:25:05;30.80;;;13.80;;
25127;SDS011;13107;51.304;6.866;2024-02-28T00:29:08;29.42;;;14.15;;
25127;SDS011;13107;51.304;6.866;2024-02-28T00:33:13;33.70;;;14.85;;
25127;SDS011;13107;51.304;6.866;2024-02-28T00:37:15;36.75;;;16.12;;
25127;SDS011;13107;51.304;6.866;2024-02-28T00:41:17;39.85;;;16.52;;
25127;SDS011;13107;51.304;6.866;2024-02-28T00:45:19;37.22;;;16.27;;
25127;SDS011;13107;51.304;6.866;2024-02-28T00:49:21;40.00;;;17.02;;
25127;SDS011;13107;51.304;6.866;2024-02-28T00:53:23;52.92;;;20.37;;
25127;SDS011;13107;51.304;6.866;2024-02-28T00:57:25;63.33;;;20.67;;
25127;SDS011;13107;51.304;6.866;2024-02-28T01:01:27;55.90;;;21.45;;
25127;SDS011;13107;51.304;6.866;2024-02-28T01:05:29;56.35;;;21.00;;
25127;SDS011;13107;51.304;6.866;2024-02-28T01:09:31;56.53;;;19.85;;
25127;SDS011;13107;51.304;6.866;2024-02-28T01:13:33;42.08;;;18.45;;
25127;SDS011;13107;51.304;6.866;2024-02-28T01:17:34;53.35;;;19.05;;
25127;SDS011;13107;51.304;6.866;2024-02-28T01:21:36;63.72;;;20.48;;
25127;SDS011;13107;51.304;6.866;2024-02-28T01:25:40;73.05;;;19.48;;
25127;SDS011;13107;51.304;6.866;2024-02-28T01:29:42;56.78;;;19.12;;
25127;SDS011;13107;51.304;6.866;2024-02-28T01:33:44;45.40;;;18.30;;
25127;SDS011;13107;51.304;6.866;2024-02-28T01:37:45;37.88;;;17.92;;
25127;SDS011;13107;51.304;6.866;2024-02-28T01:41:51;39.42;;;18.60;;
25127;SDS011;13107;51.304;6.866;2024-02-28T01:45:56;41.70;;;19.10;;
25127;SDS011;13107;51.304;6.866;2024-02-28T01:50:00;39.92;;;19.10;;
25127;SDS011;13107;51.304;6.866;2024-02-28T01:54:02;39.60;;;19.23;;
25127;SDS011;13107;51.304;6.866;2024-02-28T01:58:04;44.08;;;18.50;;
25127;SDS011;13107;51.304;6.866;2024-02-28T02:02:07;37.67;;;18.40;;
25127;SDS011;13107;51.304;6.866;2024-02-28T02:06:10;39.92;;;18.77;;
25127;SDS011;13107;51.304;6.866;2024-02-28T02:10:12;38.20;;;17.52;;
25127;SDS011;13107;51.304;6.866;2024-02-28T02:14:14;38.30;;;18.58;;
25127;SDS011;13107;51.304;6.866;2024-02-28T02:18:16;33.80;;;16.90;;
25127;SDS011;13107;51.304;6.866;2024-02-28T02:22:18;38.17;;;18.65;;
25127;SDS011;13107;51.304;6.866;2024-02-28T02:26:21;37.30;;;17.75;;
25127;SDS011;13107;51.304;6.866;2024-02-28T02:30:23;35.00;;;17.00;;
25127;SDS011;13107;51.304;6.866;2024-02-28T02:34:25;39.92;;;17.77;;
25127;SDS011;13107;51.304;6.866;2024-02-28T02:38:27;36.35;;;18.02;;
25127;SDS011;13107;51.304;6.866;2024-02-28T02:42:28;35.35;;;17.12;;
25127;SDS011;13107;51.304;6.866;2024-02-28T02:46:30;37.70;;;18.73;;
25127;SDS011;13107;51.304;6.866;2024-02-28T02:50:32;38.38;;;16.95;;
25127;SDS011;13107;51.304;6.866;2024-02-28T02:54:34;36.30;;;17.60;;
25127;SDS011;13107;51.304;6.866;2024-02-28T02:58:36;35.40;;;16.75;;
25127;SDS011;13107;51.304;6.866;2024-02-28T03:02:38;44.35;;;19.85;;
25127;SDS011;13107;51.304;6.866;2024-02-28T03:06:41;65.95;;;28.08;;
25127;SDS011;13107;51.304;6.866;2024-02-28T03:10:42;63.97;;;29.30;;
25127;SDS011;13107;51.304;6.866;2024-02-28T03:14:44;79.03;;;32.65;;
25127;SDS011;13107;51.304;6.866;2024-02-28T03:18:46;92.97;;;35.72;;
25127;SDS011;13107;51.304;6.866;2024-02-28T03:22:48;100.95;;;39.15;;
25127;SDS011;13107;51.304;6.866;2024-02-28T03:26:50;96.07;;;39.15;;
25127;SDS011;13107;51.304;6.866;2024-02-28T03:30:52;92.82;;;37.25;;
25127;SDS011;13107;51.304;6.866;2024-02-28T03:34:53;103.53;;;38.95;;
25127;SDS011;13107;51.304;6.866;2024-02-28T03:38:55;98.15;;;39.10;;
25127;SDS011;13107;51.304;6.866;2024-02-28T03:42:57;88.10;;;38.30;;
25127;SDS011;13107;51.304;6.866;2024-02-28T03:47:00;87.90;;;36.90;;
25127;SDS011;13107;51.304;6.866;2024-02-28T03:51:02;91.22;;;37.65;;
25127;SDS011;13107;51.304;6.866;2024-02-28T03:55:04;89.25;;;38.08;;
25127;SDS011;13107;51.304;6.866;2024-02-28T03:59:06;86.30;;;36.30;;
25127;SDS011;13107;51.304;6.866;2024-02-28T04:03:08;86.03;;;36.08;;
25127;SDS011;13107;51.304;6.866;2024-02-28T04:07:10;85.28;;;34.92;;
25127;SDS011;13107;51.304;6.866;2024-02-28T04:11:12;88.45;;;35.45;;
25127;SDS011;13107;51.304;6.866;2024-02-28T04:15:14;80.03;;;34.88;;
25127;SDS011;13107;51.304;6.866;2024-02-28T04:19:16;82.10;;;34.60;;
25127;SDS011;13107;51.304;6.866;2024-02-28T04:23:18;81.70;;;33.17;;
25127;SDS011;13107;51.304;6.866;2024-02-28T04:27:20;77.35;;;34.08;;
25127;SDS011;13107;51.304;6.866;2024-02-28T04:31:22;81.10;;;34.10;;
25127;SDS011;13107;51.304;6.866;2024-02-28T04:35:24;84.60;;;35.42;;
25127;SDS011;13107;51.304;6.866;2024-02-28T04:39:26;90.40;;;37.33;;
25127;SDS011;13107;51.304;6.866;2024-02-28T04:43:28;95.28;;;37.90;;
25127;SDS011;13107;51.304;6.866;2024-02-28T04:47:30;96.75;;;38.67;;
25127;SDS011;13107;51.304;6.866;2024-02-28T04:51:51;94.93;;;37.83;;
25127;SDS011;13107;51.304;6.866;2024-02-28T04:55:54;95.90;;;37.60;;
25127;SDS011;13107;51.304;6.866;2024-02-28T04:59:56;96.18;;;39.35;;
25127;SDS011;13107;51.304;6.866;2024-02-28T05:03:58;101.32;;;38.72;;
25127;SDS011;13107;51.304;6.866;2024-02-28T05:07:59;95.53;;;39.15;;
25127;SDS011;13107;51.304;6.866;2024-02-28T05:12:01;92.62;;;38.70;;
25127;SDS011;13107;51.304;6.866;2024-02-28T05:16:03;96.47;;;38.58;;
25127;SDS011;13107;51.304;6.866;2024-02-28T05:20:05;99.57;;;39.15;;
25127;SDS011;13107;51.304;6.866;2024-02-28T05:24:08;96.60;;;39.35;;
25127;SDS011;13107;51.304;6.866;2024-02-28T05:28:10;101.65;;;40.25;;
25127;SDS011;13107;51.304;6.866;2024-02-28T05:32:12;102.35;;;39.97;;
25127;SDS011;13107;51.304;6.866;2024-02-28T05:36:14;102.10;;;39.53;;
25127;SDS011;13107;51.304;6.866;2024-02-28T05:40:15;96.78;;;39.58;;
25127;SDS011;13107;51.304;6.866;2024-02-28T05:44:17;110.07;;;40.45;;
25127;SDS011;13107;51.304;6.866;2024-02-28T05:48:19;106.25;;;42.03;;
25127;SDS011;13107;51.304;6.866;2024-02-28T05:52:21;101.70;;;40.00;;
25127;SDS011;13107;51.304;6.866;2024-02-28T05:56:23;106.03;;;40.63;;
25127;SDS011;13107;51.304;6.866;2024-02-28T06:00:25;96.90;;;38.80;;
25127;SDS011;13107;51.304;6.866;2024-02-28T06:04:27;114.12;;;41.47;;
25127;SDS011;13107;51.304;6.866;2024-02-28T06:08:28;111.03;;;40.85;;
25127;SDS011;13107;51.304;6.866;2024-02-28T06:12:30;109.32;;;40.22;;
25127;SDS011;13107;51.304;6.866;2024-02-28T06:16:32;118.22;;;42.20;;
25127;SDS011;13107;51.304;6.866;2024-02-28T06:20:34;114.57;;;41.72;;
25127;SDS011;13107;51.304;6.866;2024-02-28T06:24:35;118.13;;;44.47;;
25127;SDS011;13107;51.304;6.866;2024-02-28T06:28:37;113.32;;;43.17;;
25127;SDS011;13107;51.304;6.866;2024-02-28T06:32:40;115.18;;;45.63;;
25127;SDS011;13107;51.304;6.866;2024-02-28T06:36:42;110.20;;;41.28;;
25127;SDS011;13107;51.304;6.866;2024-02-28T06:40:43;107.43;;;42.70;;
25127;SDS011;13107;51.304;6.866;2024-02-28T06:44:45;105.37;;;41.70;;
25127;SDS011;13107;51.304;6.866;2024-02-28T06:48:47;99.20;;;41.15;;
25127;SDS011;13107;51.304;6.866;2024-02-28T06:52:50;110.85;;;39.47;;
25127;SDS011;13107;51.304;6.866;2024-02-28T06:56:55;116.12;;;42.90;;
25127;SDS011;13107;51.304;6.866;2024-02-28T07:00:58;108.97;;;40.25;;
25127;SDS011;13107;51.304;6.866;2024-02-28T07:05:02;106.95;;;40.85;;
25127;SDS011;13107;51.304;6.866;2024-02-28T07:09:08;97.28;;;37.55;;
25127;SDS011;13107;51.304;6.866;2024-02-28T07:13:10;91.37;;;38.00;;
25127;SDS011;13107;51.304;6.866;2024-02-28T07:17:12;89.50;;;36.33;;
25127;SDS011;13107;51.304;6.866;2024-02-28T07:21:13;92.62;;;36.75;;
25127;SDS011;13107;51.304;6.866;2024-02-28T07:25:15;88.07;;;36.25;;
25127;SDS011;13107;51.304;6.866;2024-02-28T07:29:21;74.22;;;30.83;;
25127;SDS011;13107;51.304;6.866;2024-02-28T07:33:22;67.32;;;30.23;;
25127;SDS011;13107;51.304;6.866;2024-02-28T07:37:24;80.72;;;32.33;;
25127;SDS011;13107;51.304;6.866;2024-02-28T07:41:26;84.72;;;31.42;;
25127;SDS011;13107;51.304;6.866;2024-02-28T07:45:29;88.68;;;31.62;;
25127;SDS011;13107;51.304;6.866;2024-02-28T07:49:31;81.65;;;30.88;;
25127;SDS011;13107;51.304;6.866;2024-02-28T07:53:32;83.57;;;32.03;;
25127;SDS011;13107;51.304;6.866;2024-02-28T07:57:34;77.55;;;30.73;;
25127;SDS011;13107;51.304;6.866;2024-02-28T08:01:36;83.82;;;30.20;;
25127;SDS011;13107;51.304;6.866;2024-02-28T08:05:41;80.18;;;30.23;;
25127;SDS011;13107;51.304;6.866;2024-02-28T08:09:44;82.47;;;30.80;;
25127;SDS011;13107;51.304;6.866;2024-02-28T08:13:46;87.00;;;31.80;;
25127;SDS011;13107;51.304;6.866;2024-02-28T08:17:48;85.10;;;32.90;;
25127;SDS011;13107;51.304;6.866;2024-02-28T08:21:50;92.93;;;33.30;;
25127;SDS011;13107;51.304;6.866;2024-02-28T08:25:52;86.82;;;33.15;;
25127;SDS011;13107;51.304;6.866;2024-02-28T08:29:54;93.57;;;34.28;;
25127;SDS011;13107;51.304;6.866;2024-02-28T08:33:56;94.43;;;32.75;;
25127;SDS011;13107;51.304;6.866;2024-02-28T08:37:58;97.12;;;34.40;;
25127;SDS011;13107;51.304;6.866;2024-02-28T08:42:00;98.85;;;33.67;;
25127;SDS011;13107;51.304;6.866;2024-02-28T08:46:01;94.87;;;34.15;;
25127;SDS011;13107;51.304;6.866;2024-02-28T08:50:03;89.07;;;32.65;;
25127;SDS011;13107;51.304;6.866;2024-02-28T08:54:06;89.93;;;32.22;;
25127;SDS011;13107;51.304;6.866;2024-02-28T08:58:08;79.65;;;30.60;;
25127;SDS011;13107;51.304;6.866;2024-02-28T09:02:09;83.35;;;29.58;;
25127;SDS011;13107;51.304;6.866;2024-02-28T09:06:12;84.43;;;32.05;;
25127;SDS011;13107;51.304;6.866;2024-02-28T09:10:14;80.32;;;29.27;;
25127;SDS011;13107;51.304;6.866;2024-02-28T09:14:16;80.30;;;29.90;;
25127;SDS011;13107;51.304;6.866;2024-02-28T09:18:18;68.00;;;27.17;;
25127;SDS011;13107;51.304;6.866;2024-02-28T09:22:20;77.03;;;28.73;;
25127;SDS011;13107;51.304;6.866;2024-02-28T09:26:22;73.35;;;29.23;;
25127;SDS011;13107;51.304;6.866;2024-02-28T09:30:24;78.47;;;31.08;;
25127;SDS011;13107;51.304;6.866;2024-02-28T09:34:33;73.90;;;29.85;;
25127;SDS011;13107;51.304;6.866;2024-02-28T09:38:35;75.75;;;29.50;;
25127;SDS011;13107;51.304;6.866;2024-02-28T09:42:36;73.85;;;29.95;;
25127;SDS011;13107;51.304;6.866;2024-02-28T09:46:39;76.47;;;29.98;;
25127;SDS011;13107;51.304;6.866;2024-02-28T09:50:41;72.10;;;29.17;;
25127;SDS011;13107;51.304;6.866;2024-02-28T09:54:44;64.65;;;27.13;;
25127;SDS011;13107;51.304;6.866;2024-02-28T09:58:46;75.45;;;28.62;;
25127;SDS011;13107;51.304;6.866;2024-02-28T10:02:47;65.43;;;27.77;;
25127;SDS011;13107;51.304;6.866;2024-02-28T10:06:51;63.42;;;25.75;;
25127;SDS011;13107;51.304;6.866;2024-02-28T10:10:53;61.47;;;24.98;;
25127;SDS011;13107;51.304;6.866;2024-02-28T10:14:57;64.80;;;26.52;;
25127;SDS011;13107;51.304;6.866;2024-02-28T10:19:01;57.97;;;25.65;;
25127;SDS011;13107;51.304;6.866;2024-02-28T10:23:04;61.55;;;24.75;;
25127;SDS011;13107;51.304;6.866;2024-02-28T10:31:16;54.92;;;25.52;;
25127;SDS011;13107;51.304;6.866;2024-02-28T10:35:18;61.40;;;26.95;;
25127;SDS011;13107;51.304;6.866;2024-02-28T10:39:26;62.15;;;27.20;;
25127;SDS011;13107;51.304;6.866;2024-02-28T10:43:30;60.25;;;26.65;;
25127;SDS011;13107;51.304;6.866;2024-02-28T10:47:32;55.38;;;27.35;;
25127;SDS011;13107;51.304;6.866;2024-02-28T10:51:35;54.00;;;26.98;;
25127;SDS011;13107;51.304;6.866;2024-02-28T10:55:39;54.40;;;26.60;;
25127;SDS011;13107;51.304;6.866;2024-02-28T10:59:42;56.25;;;25.65;;
25127;SDS011;13107;51.304;6.866;2024-02-28T11:03:46;52.47;;;26.00;;
25127;SDS011;13107;51.304;6.866;2024-02-28T11:07:52;54.35;;;27.48;;
25127;SDS011;13107;51.304;6.866;2024-02-28T11:11:55;64.53;;;30.98;;
25127;SDS011;13107;51.304;6.866;2024-02-28T11:16:07;53.97;;;26.98;;
25127;SDS011;13107;51.304;6.866;2024-02-28T11:20:13;59.88;;;28.55;;
25127;SDS011;13107;51.304;6.866;2024-02-28T11:24:15;55.05;;;27.30;;
25127;SDS011;13107;51.304;6.866;2024-02-28T11:28:17;55.70;;;28.90;;
25127;SDS011;13107;51.304;6.866;2024-02-28T11:32:27;54.22;;;29.37;;
25127;SDS011;13107;51.304;6.866;2024-02-28T11:36:33;49.13;;;25.25;;
25127;SDS011;13107;51.304;6.866;2024-02-28T11:40:35;52.75;;;27.42;;
25127;SDS011;13107;51.304;6.866;2024-02-28T11:44:37;47.88;;;25.92;;
25127;SDS011;13107;51.304;6.866;2024-02-28T11:48:39;49.25;;;25.50;;
25127;SDS011;13107;51.304;6.866;2024-02-28T11:52:41;47.53;;;24.87;;
25127;SDS011;13107;51.304;6.866;2024-02-28T11:56:43;48.13;;;26.90;;
25127;SDS011;13107;51.304;6.866;2024-02-28T12:00:46;49.85;;;25.33;;
25127;SDS011;13107;51.304;6.866;2024-02-28T12:04:48;46.30;;;25.02;;
25127;SDS011;13107;51.304;6.866;2024-02-28T12:08:51;43.42;;;23.98;;
25127;SDS011;13107;51.304;6.866;2024-02-28T12:12:53;45.85;;;23.70;;
25127;SDS011;13107;51.304;6.866;2024-02-28T12:17:00;46.28;;;25.00;;
25127;SDS011;13107;51.304;6.866;2024-02-28T12:21:02;43.42;;;22.60;;
25127;SDS011;13107;51.304;6.866;2024-02-28T12:25:05;45.15;;;22.30;;
25127;SDS011;13107;51.304;6.866;2024-02-28T12:29:09;40.60;;;21.85;;
25127;SDS011;13107;51.304;6.866;2024-02-28T12:33:12;40.83;;;22.65;;
25127;SDS011;13107;51.304;6.866;2024-02-28T12:37:14;43.30;;;22.27;;
25127;SDS011;13107;51.304;6.866;2024-02-28T12:41:16;37.63;;;20.55;;
25127;SDS011;13107;51.304;6.866;2024-02-28T12:45:18;34.55;;;20.27;;
25127;SDS011;13107;51.304;6.866;2024-02-28T12:49:20;33.70;;;19.08;;
25127;SDS011;13107;51.304;6.866;2024-02-28T12:53:22;37.85;;;21.67;;
25127;SDS011;13107;51.304;6.866;2024-02-28T12:57:24;39.25;;;21.58;;
25127;SDS011;13107;51.304;6.866;2024-02-28T13:01:26;39.35;;;21.90;;
25127;SDS011;13107;51.304;6.866;2024-02-28T13:05:28;31.50;;;16.70;;
25127;SDS011;13107;51.304;6.866;2024-02-28T13:09:32;35.85;;;19.90;;
25127;SDS011;13107;51.304;6.866;2024-02-28T13:13:34;32.40;;;18.60;;
25127;SDS011;13107;51.304;6.866;2024-02-28T13:17:37;32.30;;;17.50;;
25127;SDS011;13107;51.304;6.866;2024-02-28T13:21:39;32.80;;;18.80;;
25127;SDS011;13107;51.304;6.866;2024-02-28T13:25:41;34.35;;;18.73;;
25127;SDS011;13107;51.304;6.866;2024-02-28T13:29:43;33.45;;;18.75;;
25127;SDS011;13107;51.304;6.866;2024-02-28T13:33:44;35.50;;;19.08;;
25127;SDS011;13107;51.304;6.866;2024-02-28T13:37:46;31.40;;;17.48;;
25127;SDS011;13107;51.304;6.866;2024-02-28T13:41:49;34.50;;;18.77;;
25127;SDS011;13107;51.304;6.866;2024-02-28T13:45:52;34.88;;;19.25;;
25127;SDS011;13107;51.304;6.866;2024-02-28T13:49:56;37.53;;;20.00;;
25127;SDS011;13107;51.304;6.866;2024-02-28T13:53:58;34.65;;;20.00;;
25127;SDS011;13107;51.304;6.866;2024-02-28T13:58:00;38.70;;;19.62;;
25127;SDS011;13107;51.304;6.866;2024-02-28T14:02:02;35.40;;;19.75;;
25127;SDS011;13107;51.304;6.866;2024-02-28T14:06:04;36.55;;;20.30;;
25127;SDS011;13107;51.304;6.866;2024-02-28T14:10:06;40.58;;;20.55;;
25127;SDS011;13107;51.304;6.866;2024-02-28T14:14:10;35.80;;;20.02;;
25127;SDS011;13107;51.304;6.866;2024-02-28T14:18:13;33.95;;;20.08;;
25127;SDS011;13107;51.304;6.866;2024-02-28T14:22:14;34.00;;;18.83;;
25127;SDS011;13107;51.304;6.866;2024-02-28T14:26:17;35.10;;;19.10;;
25127;SDS011;13107;51.304;6.866;2024-02-28T14:30:19;30.37;;;15.48;;
25127;SDS011;13107;51.304;6.866;2024-02-28T14:34:21;32.05;;;18.12;;
25127;SDS011;13107;51.304;6.866;2024-02-28T14:38:23;38.22;;;19.48;;
25127;SDS011;13107;51.304;6.866;2024-02-28T14:42:25;36.55;;;20.15;;
25127;SDS011;13107;51.304;6.866;2024-02-28T14:46:27;37.80;;;19.95;;
25127;SDS011;13107;51.304;6.866;2024-02-28T14:50:29;33.30;;;18.90;;
25127;SDS011;13107;51.304;6.866;2024-02-28T14:54:31;36.78;;;19.90;;
25127;SDS011;13107;51.304;6.866;2024-02-28T14:58:33;30.15;;;16.98;;
25127;SDS011;13107;51.304;6.866;2024-02-28T15:02:34;29.98;;;16.42;;
25127;SDS011;13107;51.304;6.866;2024-02-28T15:06:37;35.20;;;16.77;;
25127;SDS011;13107;51.304;6.866;2024-02-28T15:10:38;30.73;;;16.33;;
25127;SDS011;13107;51.304;6.866;2024-02-28T15:14:40;32.00;;;17.33;;
25127;SDS011;13107;51.304;6.866;2024-02-28T15:18:42;32.08;;;17.20;;
25127;SDS011;13107;51.304;6.866;2024-02-28T15:22:44;33.22;;;17.85;;
25127;SDS011;13107;51.304;6.866;2024-02-28T15:26:47;33.97;;;18.87;;
25127;SDS011;13107;51.304;6.866;2024-02-28T15:30:49;33.85;;;18.35;;
25127;SDS011;13107;51.304;6.866;2024-02-28T15:34:51;35.15;;;19.35;;
25127;SDS011;13107;51.304;6.866;2024-02-28T15:38:53;37.28;;;18.87;;
25127;SDS011;13107;51.304;6.866;2024-02-28T15:42:54;33.30;;;18.25;;
25127;SDS011;13107;51.304;6.866;2024-02-28T15:46:56;38.78;;;19.98;;
25127;SDS011;13107;51.304;6.866;2024-02-28T15:50:58;37.13;;;18.60;;
25127;SDS011;13107;51.304;6.866;2024-02-28T15:55:00;36.67;;;18.98;;
25127;SDS011;13107;51.304;6.866;2024-02-28T15:59:02;40.30;;;19.05;;
25127;SDS011;13107;51.304;6.866;2024-02-28T16:03:06;36.33;;;19.62;;
25127;SDS011;13107;51.304;6.866;2024-02-28T16:07:08;37.55;;;18.40;;
25127;SDS011;13107;51.304;6.866;2024-02-28T16:11:11;36.20;;;18.30;;
25127;SDS011;13107;51.304;6.866;2024-02-28T16:15:12;37.35;;;18.20;;
25127;SDS011;13107;51.304;6.866;2024-02-28T16:19:14;33.55;;;17.87;;
25127;SDS011;13107;51.304;6.866;2024-02-28T16:23:27;34.17;;;16.52;;
25127;SDS011;13107;51.304;6.866;2024-02-28T16:27:28;31.90;;;17.10;;
25127;SDS011;13107;51.304;6.866;2024-02-28T16:31:30;29.42;;;16.02;;
25127;SDS011;13107;51.304;6.866;2024-02-28T16:35:32;30.48;;;16.20;;
25127;SDS011;13107;51.304;6.866;2024-02-28T16:39:34;31.55;;;15.13;;
25127;SDS011;13107;51.304;6.866;2024-02-28T16:43:36;35.47;;;16.85;;
25127;SDS011;13107;51.304;6.866;2024-02-28T16:47:38;36.88;;;16.40;;
25127;SDS011;13107;51.304;6.866;2024-02-28T16:51:40;33.47;;;16.83;;
25127;SDS011;13107;51.304;6.866;2024-02-28T16:55:43;26.87;;;15.52;;
25127;SDS011;13107;51.304;6.866;2024-02-28T16:59:45;30.20;;;16.60;;
25127;SDS011;13107;51.304;6.866;2024-02-28T17:03:47;31.70;;;16.35;;
25127;SDS011;13107;51.304;6.866;2024-02-28T17:07:50;31.70;;;15.82;;
25127;SDS011;13107;51.304;6.866;2024-02-28T17:12:00;33.30;;;17.77;;
25127;SDS011;13107;51.304;6.866;2024-02-28T17:16:02;31.80;;;17.52;;
25127;SDS011;13107;51.304;6.866;2024-02-28T17:20:04;34.35;;;17.02;;
25127;SDS011;13107;51.304;6.866;2024-02-28T17:24:08;27.98;;;15.88;;
25127;SDS011;13107;51.304;6.866;2024-02-28T17:28:10;28.58;;;16.77;;
25127;SDS011;13107;51.304;6.866;2024-02-28T17:32:12;32.63;;;17.42;;
25127;SDS011;13107;51.304;6.866;2024-02-28T17:36:14;30.75;;;15.10;;
25127;SDS011;13107;51.304;6.866;2024-02-28T17:40:16;32.35;;;16.08;;
25127;SDS011;13107;51.304;6.866;2024-02-28T17:44:18;32.85;;;15.40;;
25127;SDS011;13107;51.304;6.866;2024-02-28T17:48:20;29.40;;;16.23;;
25127;SDS011;13107;51.304;6.866;2024-02-28T17:52:21;28.90;;;15.63;;
25127;SDS011;13107;51.304;6.866;2024-02-28T17:56:23;31.05;;;15.93;;
25127;SDS011;13107;51.304;6.866;2024-02-28T18:00:25;32.80;;;16.15;;
25127;SDS011;13107;51.304;6.866;2024-02-28T18:04:28;34.28;;;16.12;;
25127;SDS011;13107;51.304;6.866;2024-02-28T18:08:29;28.75;;;15.68;;
25127;SDS011;13107;51.304;6.866;2024-02-28T18:12:33;33.72;;;15.50;;
25127;SDS011;13107;51.304;6.866;2024-02-28T18:16:35;31.58;;;15.30;;
25127;SDS011;13107;51.304;6.866;2024-02-28T18:20:38;33.88;;;15.13;;
25127;SDS011;13107;51.304;6.866;2024-02-28T18:24:39;27.95;;;14.05;;
25127;SDS011;13107;51.304;6.866;2024-02-28T18:28:41;28.48;;;14.00;;
25127;SDS011;13107;51.304;6.866;2024-02-28T18:32:43;29.67;;;14.10;;
25127;SDS011;13107;51.304;6.866;2024-02-28T18:36:46;28.55;;;14.25;;
25127;SDS011;13107;51.304;6.866;2024-02-28T18:40:47;28.10;;;13.35;;
25127;SDS011;13107;51.304;6.866;2024-02-28T18:44:53;33.53;;;13.68;;
25127;SDS011;13107;51.304;6.866;2024-02-28T18:48:56;32.53;;;14.87;;
25127;SDS011;13107;51.304;6.866;2024-02-28T18:52:58;30.92;;;15.43;;
25127;SDS011;13107;51.304;6.866;2024-02-28T18:57:00;29.20;;;15.35;;
25127;SDS011;13107;51.304;6.866;2024-02-28T19:01:02;32.58;;;16.10;;
25127;SDS011;13107;51.304;6.866;2024-02-28T19:05:04;34.67;;;17.02;;
25127;SDS011;13107;51.304;6.866;2024-02-28T19:09:06;38.90;;;17.77;;
25127;SDS011;13107;51.304;6.866;2024-02-28T19:13:10;31.75;;;16.80;;
25127;SDS011;13107;51.304;6.866;2024-02-28T19:17:21;34.95;;;16.30;;
25127;SDS011;13107;51.304;6.866;2024-02-28T19:21:24;40.12;;;18.00;;
25127;SDS011;13107;51.304;6.866;2024-02-28T19:25:25;32.13;;;15.50;;
25127;SDS011;13107;51.304;6.866;2024-02-28T19:29:27;34.42;;;16.12;;
25127;SDS011;13107;51.304;6.866;2024-02-28T19:33:29;35.85;;;16.80;;
25127;SDS011;13107;51.304;6.866;2024-02-28T19:37:31;35.58;;;17.62;;
25127;SDS011;13107;51.304;6.866;2024-02-28T19:41:33;34.42;;;16.48;;
25127;SDS011;13107;51.304;6.866;2024-02-28T19:45:35;33.70;;;18.08;;
25127;SDS011;13107;51.304;6.866;2024-02-28T19:49:37;35.72;;;17.65;;
25127;SDS011;13107;51.304;6.866;2024-02-28T19:53:38;38.30;;;17.35;;
25127;SDS011;13107;51.304;6.866;2024-02-28T19:57:41;33.63;;;17.05;;
25127;SDS011;13107;51.304;6.866;2024-02-28T20:01:43;34.08;;;16.37;;
25127;SDS011;13107;51.304;6.866;2024-02-28T20:05:46;39.30;;;17.60;;
25127;SDS011;13107;51.304;6.866;2024-02-28T20:09:47;36.97;;;17.35;;
25127;SDS011;13107;51.304;6.866;2024-02-28T20:13:49;36.63;;;17.90;;
25127;SDS011;13107;51.304;6.866;2024-02-28T20:17:52;37.70;;;18.33;;
25127;SDS011;13107;51.304;6.866;2024-02-28T20:21:54;40.30;;;18.52;;
25127;SDS011;13107;51.304;6.866;2024-02-28T20:25:56;33.70;;;16.58;;
25127;SDS011;13107;51.304;6.866;2024-02-28T20:29:58;37.85;;;18.77;;
25127;SDS011;13107;51.304;6.866;2024-02-28T20:34:00;35.17;;;16.50;;
25127;SDS011;13107;51.304;6.866;2024-02-28T20:38:01;36.63;;;17.35;;
25127;SDS011;13107;51.304;6.866;2024-02-28T20:42:04;31.10;;;16.80;;
25127;SDS011;13107;51.304;6.866;2024-02-28T20:46:06;33.90;;;17.20;;
25127;SDS011;13107;51.304;6.866;2024-02-28T20:50:08;32.90;;;17.70;;
25127;SDS011;13107;51.304;6.866;2024-02-28T20:54:10;35.05;;;17.95;;
25127;SDS011;13107;51.304;6.866;2024-02-28T20:58:12;37.88;;;18.83;;
25127;SDS011;13107;51.304;6.866;2024-02-28T21:02:14;36.25;;;17.15;;
25127;SDS011;13107;51.304;6.866;2024-02-28T21:06:16;34.15;;;15.98;;
25127;SDS011;13107;51.304;6.866;2024-02-28T21:10:20;34.80;;;17.48;;
25127;SDS011;13107;51.304;6.866;2024-02-28T21:14:23;30.48;;;16.15;;
25127;SDS011;13107;51.304;6.866;2024-02-28T21:18:25;37.47;;;16.73;;
25127;SDS011;13107;51.304;6.866;2024-02-28T21:22:26;26.62;;;14.30;;
25127;SDS011;13107;51.304;6.866;2024-02-28T21:26:28;33.33;;;16.15;;
25127;SDS011;13107;51.304;6.866;2024-02-28T21:30:30;34.05;;;15.85;;
25127;SDS011;13107;51.304;6.866;2024-02-28T21:34:32;30.40;;;14.87;;
25127;SDS011;13107;51.304;6.866;2024-02-28T21:38:34;29.83;;;15.07;;
25127;SDS011;13107;51.304;6.866;2024-02-28T21:42:37;29.27;;;15.48;;
25127;SDS011;13107;51.304;6.866;2024-02-28T21:46:39;28.25;;;15.55;;
25127;SDS011;13107;51.304;6.866;2024-02-28T21:50:41;28.67;;;14.80;;
25127;SDS011;13107;51.304;6.866;2024-02-28T21:54:44;29.37;;;14.93;;
25127;SDS011;13107;51.304;6.866;2024-02-28T21:58:46;26.67;;;14.45;;
25127;SDS011;13107;51.304;6.866;2024-02-28T22:02:47;26.60;;;14.10;;
25127;SDS011;13107;51.304;6.866;2024-02-28T22:06:49;24.92;;;13.57;;
25127;SDS011;13107;51.304;6.866;2024-02-28T22:10:51;29.08;;;14.52;;
25127;SDS011;13107;51.304;6.866;2024-02-28T22:14:53;23.58;;;13.32;;
25127;SDS011;13107;51.304;6.866;2024-02-28T22:18:55;27.02;;;13.43;;
25127;SDS011;13107;51.304;6.866;2024-02-28T22:22:57;24.27;;;13.75;;
25127;SDS011;13107;51.304;6.866;2024-02-28T22:26:59;23.48;;;12.65;;
25127;SDS011;13107;51.304;6.866;2024-02-28T22:31:02;26.08;;;13.43;;
25127;SDS011;13107;51.304;6.866;2024-02-28T22:35:04;22.02;;;12.45;;
25127;SDS011;13107;51.304;6.866;2024-02-28T22:39:06;22.02;;;13.10;;
25127;SDS011;13107;51.304;6.866;2024-02-28T22:43:10;21.05;;;12.23;;
25127;SDS011;13107;51.304;6.866;2024-02-28T22:47:12;21.95;;;12.30;;
25127;SDS011;13107;51.304;6.866;2024-02-28T22:51:15;22.92;;;12.93;;
25127;SDS011;13107;51.304;6.866;2024-02-28T22:55:17;22.60;;;11.52;;
25127;SDS011;13107;51.304;6.866;2024-02-28T22:59:21;20.52;;;11.65;;
25127;SDS011;13107;51.304;6.866;2024-02-28T23:03:23;20.60;;;11.30;;
25127;SDS011;13107;51.304;6.866;2024-02-28T23:07:25;20.08;;;10.98;;
25127;SDS011;13107;51.304;6.866;2024-02-28T23:11:27;17.23;;;10.20;;
25127;SDS011;13107;51.304;6.866;2024-02-28T23:15:29;18.33;;;9.48;;
25127;SDS011;13107;51.304;6.866;2024-02-28T23:19:31;16.92;;;10.05;;
25127;SDS011;13107;51.304;6.866;2024-02-28T23:23:37;16.42;;;9.05;;
25127;SDS011;13107;51.304;6.866;2024-02-28T23:27:39;17.40;;;9.60;;
25127;SDS011;13107;51.304;6.866;2024-02-28T23:31:41;18.30;;;9.88;;
25127;SDS011;13107;51.304;6.866;2024-02-28T23:35:43;19.87;;;9.60;;
25127;SDS011;13107;51.304;6.866;2024-02-28T23:39:46;18.25;;;8.95;;